sensor_id;sensor_type;location;lat;lon;timestamp;P1;durP1;ratioP1;P2;durP2;ratioP2
75542;SDS011;64129;53.508;10.476;2023-08-06T00:02:19;3.20;;;2.47;;
75542;SDS011;64129;53.508;10.476;2023-08-06T00:04:45;5.22;;;2.47;;
75542;SDS011;64129;53.508;10.476;2023-08-06T00:07:12;4.40;;;2.78;;
75542;SDS011;64129;53.508;10.476;2023-08-06T00:09:39;4.15;;;2.33;;
75542;SDS011;64129;53.508;10.476;2023-08-06T00:12:05;4.22;;;2.03;;
75542;SDS011;64129;53.508;10.476;2023-08-06T00:14:32;3.67;;;1.95;;
75542;SDS011;64129;53.508;10.476;2023-08-06T00:16:58;4.10;;;2.60;;
75542;SDS011;64129;53.508;10.476;2023-08-06T00:19:25;3.05;;;2.30;;
75542;SDS011;64129;53.508;10.476;2023-08-06T00:21:52;3.03;;;2.22;;
75542;SDS011;64129;53.508;10.476;2023-08-06T00:24:18;6.05;;;2.47;;
75542;SDS011;64129;53.508;10.476;2023-08-06T00:26:45;2.80;;;2.50;;
75542;SDS011;64129;53.508;10.476;2023-08-06T00:29:12;4.38;;;2.83;;
75542;SDS011;64129;53.508;10.476;2023-08-06T00:31:38;4.13;;;2.40;;
75542;SDS011;64129;53.508;10.476;2023-08-06T00:34:05;4.03;;;2.65;;
75542;SDS011;64129;53.508;10.476;2023-08-06T00:36:31;3.63;;;2.92;;
75542;SDS011;64129;53.508;10.476;2023-08-06T00:38:59;4.15;;;2.67;;
75542;SDS011;64129;53.508;10.476;2023-08-06T00:41:26;2.72;;;2.45;;
75542;SDS011;64129;53.508;10.476;2023-08-06T00:43:52;3.47;;;2.83;;
75542;SDS011;64129;53.508;10.476;2023-08-06T00:46:19;3.72;;;2.50;;
75542;SDS011;64129;53.508;10.476;2023-08-06T00:48:46;3.80;;;2.83;;
75542;SDS011;64129;53.508;10.476;2023-08-06T00:51:13;4.65;;;3.00;;
75542;SDS011;64129;53.508;10.476;2023-08-06T00:53:41;5.70;;;3.03;;
75542;SDS011;64129;53.508;10.476;2023-08-06T00:56:09;4.85;;;3.30;;
75542;SDS011;64129;53.508;10.476;2023-08-06T00:58:36;4.15;;;2.80;;
75542;SDS011;64129;53.508;10.476;2023-08-06T01:01:03;5.05;;;2.97;;
75542;SDS011;64129;53.508;10.476;2023-08-06T01:03:30;3.97;;;3.10;;
75542;SDS011;64129;53.508;10.476;2023-08-06T01:05:56;5.30;;;3.35;;
75542;SDS011;64129;53.508;10.476;2023-08-06T01:08:30;3.92;;;2.80;;
75542;SDS011;64129;53.508;10.476;2023-08-06T01:11:17;3.60;;;3.15;;
75542;SDS011;64129;53.508;10.476;2023-08-06T01:14:37;4.03;;;2.88;;
75542;SDS011;64129;53.508;10.476;2023-08-06T01:16:48;5.30;;;3.03;;
75542;SDS011;64129;53.508;10.476;2023-08-06T01:19:20;4.75;;;3.25;;
75542;SDS011;64129;53.508;10.476;2023-08-06T01:21:47;5.88;;;3.00;;
75542;SDS011;64129;53.508;10.476;2023-08-06T01:24:15;5.28;;;3.00;;
75542;SDS011;64129;53.508;10.476;2023-08-06T01:26:44;5.63;;;3.20;;
75542;SDS011;64129;53.508;10.476;2023-08-06T01:29:26;4.15;;;3.20;;
75542;SDS011;64129;53.508;10.476;2023-08-06T01:31:57;3.42;;;3.13;;
75542;SDS011;64129;53.508;10.476;2023-08-06T01:34:25;6.85;;;3.35;;
75542;SDS011;64129;53.508;10.476;2023-08-06T01:36:54;3.80;;;3.30;;
75542;SDS011;64129;53.508;10.476;2023-08-06T01:39:20;5.88;;;3.22;;
75542;SDS011;64129;53.508;10.476;2023-08-06T01:41:50;4.57;;;3.58;;
75542;SDS011;64129;53.508;10.476;2023-08-06T01:44:18;5.28;;;3.50;;
75542;SDS011;64129;53.508;10.476;2023-08-06T01:46:44;5.57;;;3.28;;
75542;SDS011;64129;53.508;10.476;2023-08-06T01:49:11;6.38;;;3.65;;
75542;SDS011;64129;53.508;10.476;2023-08-06T01:51:37;5.47;;;3.10;;
75542;SDS011;64129;53.508;10.476;2023-08-06T01:54:04;7.18;;;3.58;;
75542;SDS011;64129;53.508;10.476;2023-08-06T01:56:31;4.78;;;3.17;;
75542;SDS011;64129;53.508;10.476;2023-08-06T01:58:57;4.78;;;3.42;;
75542;SDS011;64129;53.508;10.476;2023-08-06T02:01:24;4.75;;;3.30;;
75542;SDS011;64129;53.508;10.476;2023-08-06T02:03:51;6.63;;;3.53;;
75542;SDS011;64129;53.508;10.476;2023-08-06T02:06:17;4.25;;;3.30;;
75542;SDS011;64129;53.508;10.476;2023-08-06T02:08:44;4.95;;;3.78;;
75542;SDS011;64129;53.508;10.476;2023-08-06T02:11:10;4.00;;;3.13;;
75542;SDS011;64129;53.508;10.476;2023-08-06T02:13:37;3.80;;;3.00;;
75542;SDS011;64129;53.508;10.476;2023-08-06T02:16:03;5.15;;;3.10;;
75542;SDS011;64129;53.508;10.476;2023-08-06T02:18:34;4.65;;;3.20;;
75542;SDS011;64129;53.508;10.476;2023-08-06T02:21:01;6.28;;;2.95;;
75542;SDS011;64129;53.508;10.476;2023-08-06T02:23:28;3.92;;;3.13;;
75542;SDS011;64129;53.508;10.476;2023-08-06T02:26:01;5.43;;;3.25;;
75542;SDS011;64129;53.508;10.476;2023-08-06T02:28:29;6.10;;;2.97;;
75542;SDS011;64129;53.508;10.476;2023-08-06T02:30:59;5.32;;;3.13;;
75542;SDS011;64129;53.508;10.476;2023-08-06T02:33:25;5.70;;;3.13;;
75542;SDS011;64129;53.508;10.476;2023-08-06T02:36:01;4.50;;;3.30;;
75542;SDS011;64129;53.508;10.476;2023-08-06T02:38:30;4.32;;;3.25;;
75542;SDS011;64129;53.508;10.476;2023-08-06T02:40:57;6.07;;;3.17;;
75542;SDS011;64129;53.508;10.476;2023-08-06T02:43:26;4.50;;;3.13;;
75542;SDS011;64129;53.508;10.476;2023-08-06T02:45:56;3.53;;;2.83;;
75542;SDS011;64129;53.508;10.476;2023-08-06T02:48:24;3.85;;;3.00;;
75542;SDS011;64129;53.508;10.476;2023-08-06T02:50:50;4.72;;;3.40;;
75542;SDS011;64129;53.508;10.476;2023-08-06T02:53:17;6.10;;;3.17;;
75542;SDS011;64129;53.508;10.476;2023-08-06T02:55:46;5.80;;;3.83;;
75542;SDS011;64129;53.508;10.476;2023-08-06T02:58:17;3.95;;;3.13;;
75542;SDS011;64129;53.508;10.476;2023-08-06T03:01:00;5.43;;;3.47;;
75542;SDS011;64129;53.508;10.476;2023-08-06T03:03:38;4.32;;;3.15;;
75542;SDS011;64129;53.508;10.476;2023-08-06T03:06:06;7.45;;;3.30;;
75542;SDS011;64129;53.508;10.476;2023-08-06T03:08:44;6.80;;;3.30;;
75542;SDS011;64129;53.508;10.476;2023-08-06T03:11:11;6.18;;;3.30;;
75542;SDS011;64129;53.508;10.476;2023-08-06T03:13:38;5.53;;;3.78;;
75542;SDS011;64129;53.508;10.476;2023-08-06T03:16:05;5.90;;;3.70;;
75542;SDS011;64129;53.508;10.476;2023-08-06T03:18:32;4.03;;;3.33;;
75542;SDS011;64129;53.508;10.476;2023-08-06T03:21:02;5.38;;;3.42;;
75542;SDS011;64129;53.508;10.476;2023-08-06T03:23:30;5.75;;;3.30;;
75542;SDS011;64129;53.508;10.476;2023-08-06T03:26:00;5.18;;;3.80;;
75542;SDS011;64129;53.508;10.476;2023-08-06T03:28:30;4.25;;;3.25;;
75542;SDS011;64129;53.508;10.476;2023-08-06T03:31:00;4.15;;;3.38;;
75542;SDS011;64129;53.508;10.476;2023-08-06T03:33:33;6.07;;;3.47;;
75542;SDS011;64129;53.508;10.476;2023-08-06T03:36:02;5.03;;;3.40;;
75542;SDS011;64129;53.508;10.476;2023-08-06T03:38:31;5.43;;;3.70;;
75542;SDS011;64129;53.508;10.476;2023-08-06T03:40:59;5.20;;;3.17;;
75542;SDS011;64129;53.508;10.476;2023-08-06T03:43:25;6.95;;;3.40;;
75542;SDS011;64129;53.508;10.476;2023-08-06T03:45:52;5.47;;;3.47;;
75542;SDS011;64129;53.508;10.476;2023-08-06T03:48:19;7.65;;;3.78;;
75542;SDS011;64129;53.508;10.476;2023-08-06T03:50:46;5.43;;;3.40;;
75542;SDS011;64129;53.508;10.476;2023-08-06T03:53:14;6.30;;;3.90;;
75542;SDS011;64129;53.508;10.476;2023-08-06T03:55:41;5.18;;;3.78;;
75542;SDS011;64129;53.508;10.476;2023-08-06T03:58:07;5.68;;;3.50;;
75542;SDS011;64129;53.508;10.476;2023-08-06T04:00:34;8.00;;;4.10;;
75542;SDS011;64129;53.508;10.476;2023-08-06T04:03:01;7.60;;;3.80;;
75542;SDS011;64129;53.508;10.476;2023-08-06T04:05:30;5.88;;;3.40;;
75542;SDS011;64129;53.508;10.476;2023-08-06T04:07:57;7.88;;;4.00;;
75542;SDS011;64129;53.508;10.476;2023-08-06T04:10:24;6.63;;;3.70;;
75542;SDS011;64129;53.508;10.476;2023-08-06T04:12:50;8.40;;;4.35;;
75542;SDS011;64129;53.508;10.476;2023-08-06T04:15:17;5.63;;;3.83;;
75542;SDS011;64129;53.508;10.476;2023-08-06T04:17:44;6.28;;;3.55;;
75542;SDS011;64129;53.508;10.476;2023-08-06T04:20:10;4.28;;;3.60;;
75542;SDS011;64129;53.508;10.476;2023-08-06T04:22:37;7.30;;;3.92;;
75542;SDS011;64129;53.508;10.476;2023-08-06T04:25:04;6.45;;;3.55;;
75542;SDS011;64129;53.508;10.476;2023-08-06T04:27:30;7.60;;;4.68;;
75542;SDS011;64129;53.508;10.476;2023-08-06T04:29:57;7.60;;;4.80;;
75542;SDS011;64129;53.508;10.476;2023-08-06T04:32:24;6.15;;;4.07;;
75542;SDS011;64129;53.508;10.476;2023-08-06T04:34:55;5.43;;;4.30;;
75542;SDS011;64129;53.508;10.476;2023-08-06T04:37:22;8.32;;;4.25;;
75542;SDS011;64129;53.508;10.476;2023-08-06T04:39:49;7.55;;;5.05;;
75542;SDS011;64129;53.508;10.476;2023-08-06T04:42:17;7.32;;;4.18;;
75542;SDS011;64129;53.508;10.476;2023-08-06T04:44:43;8.75;;;4.55;;
75542;SDS011;64129;53.508;10.476;2023-08-06T04:47:10;7.18;;;4.10;;
75542;SDS011;64129;53.508;10.476;2023-08-06T04:49:37;7.10;;;4.72;;
75542;SDS011;64129;53.508;10.476;2023-08-06T04:52:03;8.15;;;4.55;;
75542;SDS011;64129;53.508;10.476;2023-08-06T04:54:30;7.30;;;4.80;;
75542;SDS011;64129;53.508;10.476;2023-08-06T04:56:57;6.78;;;4.00;;
75542;SDS011;64129;53.508;10.476;2023-08-06T04:59:23;5.40;;;4.10;;
75542;SDS011;64129;53.508;10.476;2023-08-06T05:01:50;6.35;;;4.55;;
75542;SDS011;64129;53.508;10.476;2023-08-06T05:04:17;5.82;;;4.32;;
75542;SDS011;64129;53.508;10.476;2023-08-06T05:06:43;6.88;;;4.88;;
75542;SDS011;64129;53.508;10.476;2023-08-06T05:09:10;8.18;;;4.53;;
75542;SDS011;64129;53.508;10.476;2023-08-06T05:11:36;8.13;;;4.80;;
75542;SDS011;64129;53.508;10.476;2023-08-06T05:14:03;7.68;;;4.85;;
75542;SDS011;64129;53.508;10.476;2023-08-06T05:16:29;8.85;;;4.47;;
75542;SDS011;64129;53.508;10.476;2023-08-06T05:18:56;8.75;;;4.90;;
75542;SDS011;64129;53.508;10.476;2023-08-06T05:21:22;7.57;;;4.68;;
75542;SDS011;64129;53.508;10.476;2023-08-06T05:23:49;5.72;;;4.50;;
75542;SDS011;64129;53.508;10.476;2023-08-06T05:26:16;7.00;;;5.07;;
75542;SDS011;64129;53.508;10.476;2023-08-06T05:28:44;8.05;;;4.43;;
75542;SDS011;64129;53.508;10.476;2023-08-06T05:31:12;7.65;;;5.07;;
75542;SDS011;64129;53.508;10.476;2023-08-06T05:33:38;7.30;;;5.10;;
75542;SDS011;64129;53.508;10.476;2023-08-06T05:36:05;6.88;;;4.40;;
75542;SDS011;64129;53.508;10.476;2023-08-06T05:38:32;7.43;;;4.70;;
75542;SDS011;64129;53.508;10.476;2023-08-06T05:40:58;6.22;;;4.50;;
75542;SDS011;64129;53.508;10.476;2023-08-06T05:43:25;9.80;;;5.60;;
75542;SDS011;64129;53.508;10.476;2023-08-06T05:45:51;11.77;;;4.95;;
75542;SDS011;64129;53.508;10.476;2023-08-06T05:48:18;6.80;;;5.13;;
75542;SDS011;64129;53.508;10.476;2023-08-06T05:50:44;7.28;;;4.55;;
75542;SDS011;64129;53.508;10.476;2023-08-06T05:53:11;5.97;;;4.50;;
75542;SDS011;64129;53.508;10.476;2023-08-06T05:55:38;10.15;;;5.63;;
75542;SDS011;64129;53.508;10.476;2023-08-06T05:58:05;8.02;;;5.47;;
75542;SDS011;64129;53.508;10.476;2023-08-06T06:00:31;8.23;;;4.90;;
75542;SDS011;64129;53.508;10.476;2023-08-06T06:02:58;10.23;;;4.63;;
75542;SDS011;64129;53.508;10.476;2023-08-06T06:05:24;8.82;;;4.82;;
75542;SDS011;64129;53.508;10.476;2023-08-06T06:07:51;7.85;;;5.00;;
75542;SDS011;64129;53.508;10.476;2023-08-06T06:10:17;9.07;;;5.18;;
75542;SDS011;64129;53.508;10.476;2023-08-06T06:12:44;7.22;;;4.60;;
75542;SDS011;64129;53.508;10.476;2023-08-06T06:15:11;7.05;;;4.63;;
75542;SDS011;64129;53.508;10.476;2023-08-06T06:17:37;7.28;;;4.95;;
75542;SDS011;64129;53.508;10.476;2023-08-06T06:20:04;8.40;;;5.47;;
75542;SDS011;64129;53.508;10.476;2023-08-06T06:22:31;8.73;;;5.47;;
75542;SDS011;64129;53.508;10.476;2023-08-06T06:24:58;7.97;;;5.30;;
75542;SDS011;64129;53.508;10.476;2023-08-06T06:27:24;7.65;;;5.57;;
75542;SDS011;64129;53.508;10.476;2023-08-06T06:29:51;7.57;;;4.20;;
75542;SDS011;64129;53.508;10.476;2023-08-06T06:32:18;7.90;;;4.90;;
75542;SDS011;64129;53.508;10.476;2023-08-06T06:34:45;7.78;;;5.07;;
75542;SDS011;64129;53.508;10.476;2023-08-06T06:37:11;8.05;;;5.25;;
75542;SDS011;64129;53.508;10.476;2023-08-06T06:39:38;10.95;;;5.28;;
75542;SDS011;64129;53.508;10.476;2023-08-06T06:42:05;8.30;;;4.97;;
75542;SDS011;64129;53.508;10.476;2023-08-06T06:44:37;10.55;;;5.40;;
75542;SDS011;64129;53.508;10.476;2023-08-06T06:47:03;6.38;;;5.32;;
75542;SDS011;64129;53.508;10.476;2023-08-06T06:49:30;8.27;;;4.72;;
75542;SDS011;64129;53.508;10.476;2023-08-06T06:51:56;11.68;;;5.00;;
75542;SDS011;64129;53.508;10.476;2023-08-06T06:54:23;10.18;;;5.82;;
75542;SDS011;64129;53.508;10.476;2023-08-06T06:56:50;10.60;;;5.70;;
75542;SDS011;64129;53.508;10.476;2023-08-06T06:59:16;9.13;;;5.85;;
75542;SDS011;64129;53.508;10.476;2023-08-06T07:01:43;8.68;;;5.10;;
75542;SDS011;64129;53.508;10.476;2023-08-06T07:04:09;10.98;;;5.38;;
75542;SDS011;64129;53.508;10.476;2023-08-06T07:06:36;9.95;;;6.13;;
75542;SDS011;64129;53.508;10.476;2023-08-06T07:09:02;9.95;;;5.00;;
75542;SDS011;64129;53.508;10.476;2023-08-06T07:11:29;8.82;;;5.43;;
75542;SDS011;64129;53.508;10.476;2023-08-06T07:13:56;8.07;;;5.10;;
75542;SDS011;64129;53.508;10.476;2023-08-06T07:16:26;7.90;;;5.18;;
75542;SDS011;64129;53.508;10.476;2023-08-06T07:18:53;7.70;;;5.20;;
75542;SDS011;64129;53.508;10.476;2023-08-06T07:21:21;9.38;;;5.45;;
75542;SDS011;64129;53.508;10.476;2023-08-06T07:23:48;7.35;;;5.30;;
75542;SDS011;64129;53.508;10.476;2023-08-06T07:28:42;7.38;;;5.30;;
75542;SDS011;64129;53.508;10.476;2023-08-06T07:31:09;7.90;;;4.75;;
75542;SDS011;64129;53.508;10.476;2023-08-06T07:33:35;8.25;;;5.40;;
75542;SDS011;64129;53.508;10.476;2023-08-06T07:36:13;8.50;;;5.45;;
75542;SDS011;64129;53.508;10.476;2023-08-06T07:38:41;9.73;;;5.85;;
75542;SDS011;64129;53.508;10.476;2023-08-06T07:41:08;8.48;;;5.28;;
75542;SDS011;64129;53.508;10.476;2023-08-06T07:43:35;8.98;;;5.47;;
75542;SDS011;64129;53.508;10.476;2023-08-06T07:46:02;9.15;;;5.40;;
75542;SDS011;64129;53.508;10.476;2023-08-06T07:48:29;7.97;;;5.25;;
75542;SDS011;64129;53.508;10.476;2023-08-06T07:50:56;9.60;;;5.25;;
75542;SDS011;64129;53.508;10.476;2023-08-06T07:53:23;10.07;;;5.75;;
75542;SDS011;64129;53.508;10.476;2023-08-06T07:55:53;10.30;;;6.32;;
75542;SDS011;64129;53.508;10.476;2023-08-06T07:58:20;8.10;;;5.40;;
75542;SDS011;64129;53.508;10.476;2023-08-06T08:00:47;6.78;;;5.18;;
75542;SDS011;64129;53.508;10.476;2023-08-06T08:03:14;7.28;;;5.13;;
75542;SDS011;64129;53.508;10.476;2023-08-06T08:05:42;7.05;;;4.93;;
75542;SDS011;64129;53.508;10.476;2023-08-06T08:08:09;8.38;;;5.75;;
75542;SDS011;64129;53.508;10.476;2023-08-06T08:10:36;9.73;;;6.32;;
75542;SDS011;64129;53.508;10.476;2023-08-06T08:15:31;8.23;;;5.45;;
75542;SDS011;64129;53.508;10.476;2023-08-06T08:17:58;10.50;;;6.57;;
75542;SDS011;64129;53.508;10.476;2023-08-06T08:20:26;10.15;;;6.05;;
75542;SDS011;64129;53.508;10.476;2023-08-06T08:22:58;10.43;;;6.40;;
75542;SDS011;64129;53.508;10.476;2023-08-06T08:25:28;9.15;;;7.05;;
75542;SDS011;64129;53.508;10.476;2023-08-06T08:27:56;11.65;;;6.57;;
75542;SDS011;64129;53.508;10.476;2023-08-06T08:30:22;8.70;;;6.18;;
75542;SDS011;64129;53.508;10.476;2023-08-06T08:32:51;9.05;;;5.85;;
75542;SDS011;64129;53.508;10.476;2023-08-06T08:35:17;9.27;;;6.05;;
75542;SDS011;64129;53.508;10.476;2023-08-06T08:37:44;11.10;;;6.85;;
75542;SDS011;64129;53.508;10.476;2023-08-06T08:40:10;9.30;;;6.78;;
75542;SDS011;64129;53.508;10.476;2023-08-06T08:42:37;8.82;;;5.82;;
75542;SDS011;64129;53.508;10.476;2023-08-06T08:45:04;10.32;;;6.30;;
75542;SDS011;64129;53.508;10.476;2023-08-06T08:47:38;9.73;;;6.28;;
75542;SDS011;64129;53.508;10.476;2023-08-06T08:50:06;8.60;;;5.80;;
75542;SDS011;64129;53.508;10.476;2023-08-06T08:52:34;8.90;;;6.53;;
75542;SDS011;64129;53.508;10.476;2023-08-06T08:55:02;7.32;;;5.63;;
75542;SDS011;64129;53.508;10.476;2023-08-06T08:57:28;9.50;;;6.20;;
75542;SDS011;64129;53.508;10.476;2023-08-06T08:59:55;8.07;;;6.35;;
75542;SDS011;64129;53.508;10.476;2023-08-06T09:02:22;8.45;;;6.38;;
75542;SDS011;64129;53.508;10.476;2023-08-06T09:04:50;9.20;;;6.07;;
75542;SDS011;64129;53.508;10.476;2023-08-06T09:07:18;8.45;;;6.00;;
75542;SDS011;64129;53.508;10.476;2023-08-06T09:09:47;8.35;;;6.25;;
75542;SDS011;64129;53.508;10.476;2023-08-06T09:12:16;9.00;;;5.75;;
75542;SDS011;64129;53.508;10.476;2023-08-06T09:14:43;10.43;;;6.57;;
75542;SDS011;64129;53.508;10.476;2023-08-06T09:17:10;9.50;;;6.45;;
75542;SDS011;64129;53.508;10.476;2023-08-06T09:19:41;10.15;;;6.40;;
75542;SDS011;64129;53.508;10.476;2023-08-06T09:22:12;8.65;;;6.22;;
75542;SDS011;64129;53.508;10.476;2023-08-06T09:27:11;10.52;;;5.80;;
75542;SDS011;64129;53.508;10.476;2023-08-06T09:29:41;8.15;;;5.70;;
75542;SDS011;64129;53.508;10.476;2023-08-06T09:32:12;7.35;;;5.50;;
75542;SDS011;64129;53.508;10.476;2023-08-06T09:34:40;10.73;;;6.25;;
75542;SDS011;64129;53.508;10.476;2023-08-06T09:37:08;7.78;;;6.53;;
75542;SDS011;64129;53.508;10.476;2023-08-06T09:39:36;10.30;;;6.43;;
75542;SDS011;64129;53.508;10.476;2023-08-06T09:42:04;9.35;;;6.57;;
75542;SDS011;64129;53.508;10.476;2023-08-06T09:44:31;8.57;;;6.18;;
75542;SDS011;64129;53.508;10.476;2023-08-06T09:47:00;10.40;;;6.57;;
75542;SDS011;64129;53.508;10.476;2023-08-06T09:49:29;7.85;;;6.38;;
75542;SDS011;64129;53.508;10.476;2023-08-06T09:52:12;8.13;;;6.68;;
75542;SDS011;64129;53.508;10.476;2023-08-06T09:54:39;6.68;;;5.75;;
75542;SDS011;64129;53.508;10.476;2023-08-06T09:57:06;10.85;;;6.47;;
75542;SDS011;64129;53.508;10.476;2023-08-06T09:59:33;8.65;;;6.45;;
75542;SDS011;64129;53.508;10.476;2023-08-06T10:02:02;8.15;;;5.90;;
75542;SDS011;64129;53.508;10.476;2023-08-06T10:04:29;8.43;;;6.25;;
75542;SDS011;64129;53.508;10.476;2023-08-06T10:07:00;8.65;;;6.43;;
75542;SDS011;64129;53.508;10.476;2023-08-06T10:09:27;10.30;;;6.68;;
75542;SDS011;64129;53.508;10.476;2023-08-06T10:11:54;8.57;;;6.55;;
75542;SDS011;64129;53.508;10.476;2023-08-06T10:14:27;8.48;;;6.03;;
75542;SDS011;64129;53.508;10.476;2023-08-06T10:16:57;8.60;;;6.38;;
75542;SDS011;64129;53.508;10.476;2023-08-06T10:19:24;7.40;;;6.25;;
75542;SDS011;64129;53.508;10.476;2023-08-06T10:22:13;9.55;;;6.45;;
75542;SDS011;64129;53.508;10.476;2023-08-06T10:24:58;7.43;;;5.93;;
75542;SDS011;64129;53.508;10.476;2023-08-06T10:27:34;8.50;;;6.25;;
75542;SDS011;64129;53.508;10.476;2023-08-06T10:30:24;7.05;;;5.97;;
75542;SDS011;64129;53.508;10.476;2023-08-06T10:32:51;8.75;;;6.55;;
75542;SDS011;64129;53.508;10.476;2023-08-06T10:37:59;8.23;;;6.30;;
75542;SDS011;64129;53.508;10.476;2023-08-06T10:40:29;7.38;;;5.85;;
75542;SDS011;64129;53.508;10.476;2023-08-06T10:43:01;9.40;;;7.00;;
75542;SDS011;64129;53.508;10.476;2023-08-06T10:45:29;8.10;;;6.13;;
75542;SDS011;64129;53.508;10.476;2023-08-06T10:47:57;8.95;;;6.25;;
75542;SDS011;64129;53.508;10.476;2023-08-06T10:50:24;7.30;;;5.47;;
75542;SDS011;64129;53.508;10.476;2023-08-06T10:52:51;8.73;;;5.60;;
75542;SDS011;64129;53.508;10.476;2023-08-06T10:55:28;7.95;;;5.90;;
75542;SDS011;64129;53.508;10.476;2023-08-06T10:57:55;9.23;;;5.85;;
75542;SDS011;64129;53.508;10.476;2023-08-06T11:00:24;9.35;;;5.80;;
75542;SDS011;64129;53.508;10.476;2023-08-06T11:02:51;7.88;;;6.10;;
75542;SDS011;64129;53.508;10.476;2023-08-06T11:05:19;7.60;;;6.40;;
75542;SDS011;64129;53.508;10.476;2023-08-06T11:07:45;10.07;;;6.85;;
75542;SDS011;64129;53.508;10.476;2023-08-06T11:10:14;11.35;;;6.93;;
75542;SDS011;64129;53.508;10.476;2023-08-06T11:12:41;8.23;;;6.10;;
75542;SDS011;64129;53.508;10.476;2023-08-06T11:15:07;9.43;;;6.55;;
75542;SDS011;64129;53.508;10.476;2023-08-06T11:17:35;8.27;;;6.70;;
75542;SDS011;64129;53.508;10.476;2023-08-06T11:20:03;9.52;;;6.40;;
75542;SDS011;64129;53.508;10.476;2023-08-06T11:22:31;8.70;;;7.10;;
75542;SDS011;64129;53.508;10.476;2023-08-06T11:24:57;10.48;;;6.88;;
75542;SDS011;64129;53.508;10.476;2023-08-06T11:27:25;8.55;;;6.97;;
75542;SDS011;64129;53.508;10.476;2023-08-06T11:29:53;10.07;;;6.85;;
75542;SDS011;64129;53.508;10.476;2023-08-06T11:32:20;9.38;;;6.70;;
75542;SDS011;64129;53.508;10.476;2023-08-06T11:34:46;9.32;;;6.97;;
75542;SDS011;64129;53.508;10.476;2023-08-06T11:37:13;10.13;;;6.30;;
75542;SDS011;64129;53.508;10.476;2023-08-06T11:39:44;9.98;;;7.30;;
75542;SDS011;64129;53.508;10.476;2023-08-06T11:42:12;9.50;;;6.63;;
75542;SDS011;64129;53.508;10.476;2023-08-06T11:44:40;8.55;;;6.68;;
75542;SDS011;64129;53.508;10.476;2023-08-06T11:47:14;9.30;;;7.03;;
75542;SDS011;64129;53.508;10.476;2023-08-06T11:49:46;11.02;;;7.10;;
75542;SDS011;64129;53.508;10.476;2023-08-06T11:52:15;10.52;;;7.88;;
75542;SDS011;64129;53.508;10.476;2023-08-06T11:54:42;6.18;;;5.13;;
75542;SDS011;64129;53.508;10.476;2023-08-06T11:57:08;6.40;;;5.32;;
75542;SDS011;64129;53.508;10.476;2023-08-06T11:59:37;6.72;;;5.10;;
75542;SDS011;64129;53.508;10.476;2023-08-06T12:02:07;12.68;;;8.35;;
75542;SDS011;64129;53.508;10.476;2023-08-06T12:04:57;10.88;;;6.68;;
75542;SDS011;64129;53.508;10.476;2023-08-06T12:07:35;8.68;;;6.43;;
75542;SDS011;64129;53.508;10.476;2023-08-06T12:10:03;9.60;;;7.63;;
75542;SDS011;64129;53.508;10.476;2023-08-06T12:12:31;8.63;;;7.43;;
75542;SDS011;64129;53.508;10.476;2023-08-06T12:14:57;9.10;;;6.55;;
75542;SDS011;64129;53.508;10.476;2023-08-06T12:17:24;9.43;;;7.45;;
75542;SDS011;64129;53.508;10.476;2023-08-06T12:19:51;12.27;;;7.95;;
75542;SDS011;64129;53.508;10.476;2023-08-06T12:22:18;10.02;;;6.45;;
75542;SDS011;64129;53.508;10.476;2023-08-06T12:24:45;8.82;;;7.50;;
75542;SDS011;64129;53.508;10.476;2023-08-06T12:27:13;9.35;;;7.05;;
75542;SDS011;64129;53.508;10.476;2023-08-06T12:29:40;11.32;;;6.60;;
75542;SDS011;64129;53.508;10.476;2023-08-06T12:32:09;10.27;;;7.68;;
75542;SDS011;64129;53.508;10.476;2023-08-06T12:34:37;8.10;;;6.82;;
75542;SDS011;64129;53.508;10.476;2023-08-06T12:37:12;9.40;;;7.50;;
75542;SDS011;64129;53.508;10.476;2023-08-06T12:39:39;8.18;;;6.60;;
75542;SDS011;64129;53.508;10.476;2023-08-06T12:42:05;9.13;;;7.18;;
75542;SDS011;64129;53.508;10.476;2023-08-06T12:44:35;10.23;;;7.88;;
75542;SDS011;64129;53.508;10.476;2023-08-06T12:47:01;7.78;;;5.97;;
75542;SDS011;64129;53.508;10.476;2023-08-06T12:49:28;10.68;;;6.53;;
75542;SDS011;64129;53.508;10.476;2023-08-06T12:51:55;7.75;;;6.07;;
75542;SDS011;64129;53.508;10.476;2023-08-06T12:54:28;10.02;;;6.43;;
75542;SDS011;64129;53.508;10.476;2023-08-06T12:56:55;6.88;;;5.65;;
75542;SDS011;64129;53.508;10.476;2023-08-06T12:59:22;9.50;;;7.10;;
75542;SDS011;64129;53.508;10.476;2023-08-06T13:01:48;10.52;;;6.68;;
75542;SDS011;64129;53.508;10.476;2023-08-06T13:04:15;10.07;;;7.20;;
75542;SDS011;64129;53.508;10.476;2023-08-06T13:06:46;7.50;;;5.70;;
75542;SDS011;64129;53.508;10.476;2023-08-06T13:09:13;8.63;;;6.43;;
75542;SDS011;64129;53.508;10.476;2023-08-06T13:11:40;6.35;;;5.28;;
75542;SDS011;64129;53.508;10.476;2023-08-06T13:14:11;10.05;;;6.30;;
75542;SDS011;64129;53.508;10.476;2023-08-06T13:16:39;12.13;;;5.88;;
75542;SDS011;64129;53.508;10.476;2023-08-06T13:19:08;7.75;;;5.88;;
75542;SDS011;64129;53.508;10.476;2023-08-06T13:22:20;6.70;;;5.78;;
75542;SDS011;64129;53.508;10.476;2023-08-06T13:24:24;8.88;;;5.80;;
75542;SDS011;64129;53.508;10.476;2023-08-06T13:26:51;7.13;;;4.57;;
75542;SDS011;64129;53.508;10.476;2023-08-06T13:29:17;5.97;;;4.70;;
75542;SDS011;64129;53.508;10.476;2023-08-06T13:31:44;6.05;;;4.60;;
75542;SDS011;64129;53.508;10.476;2023-08-06T13:34:10;4.78;;;4.05;;
75542;SDS011;64129;53.508;10.476;2023-08-06T13:36:37;6.93;;;4.82;;
75542;SDS011;64129;53.508;10.476;2023-08-06T13:39:03;7.18;;;4.78;;
75542;SDS011;64129;53.508;10.476;2023-08-06T13:41:31;6.03;;;4.10;;
75542;SDS011;64129;53.508;10.476;2023-08-06T13:43:58;4.88;;;4.05;;
75542;SDS011;64129;53.508;10.476;2023-08-06T13:46:24;7.60;;;4.20;;
75542;SDS011;64129;53.508;10.476;2023-08-06T13:48:51;5.38;;;3.75;;
75542;SDS011;64129;53.508;10.476;2023-08-06T13:51:18;4.00;;;3.60;;
75542;SDS011;64129;53.508;10.476;2023-08-06T13:53:45;4.90;;;3.33;;
75542;SDS011;64129;53.508;10.476;2023-08-06T13:56:12;4.32;;;3.70;;
75542;SDS011;64129;53.508;10.476;2023-08-06T13:58:38;3.58;;;3.28;;
75542;SDS011;64129;53.508;10.476;2023-08-06T14:01:05;6.10;;;3.60;;
75542;SDS011;64129;53.508;10.476;2023-08-06T14:03:33;8.68;;;3.88;;
75542;SDS011;64129;53.508;10.476;2023-08-06T14:05:59;4.28;;;3.30;;
75542;SDS011;64129;53.508;10.476;2023-08-06T14:08:26;4.13;;;3.20;;
75542;SDS011;64129;53.508;10.476;2023-08-06T14:10:53;4.00;;;3.58;;
75542;SDS011;64129;53.508;10.476;2023-08-06T14:13:21;6.05;;;3.70;;
75542;SDS011;64129;53.508;10.476;2023-08-06T14:18:15;5.80;;;3.35;;
75542;SDS011;64129;53.508;10.476;2023-08-06T14:20:42;7.00;;;3.22;;
75542;SDS011;64129;53.508;10.476;2023-08-06T14:23:10;4.03;;;3.17;;
75542;SDS011;64129;53.508;10.476;2023-08-06T14:25:38;5.63;;;3.22;;
75542;SDS011;64129;53.508;10.476;2023-08-06T14:28:05;5.35;;;3.00;;
75542;SDS011;64129;53.508;10.476;2023-08-06T14:30:33;7.28;;;3.70;;
75542;SDS011;64129;53.508;10.476;2023-08-06T14:33:00;5.32;;;3.00;;
75542;SDS011;64129;53.508;10.476;2023-08-06T14:35:34;4.32;;;2.50;;
75542;SDS011;64129;53.508;10.476;2023-08-06T14:38:01;4.57;;;3.00;;
75542;SDS011;64129;53.508;10.476;2023-08-06T14:40:29;5.30;;;3.00;;
75542;SDS011;64129;53.508;10.476;2023-08-06T14:43:00;4.57;;;2.90;;
75542;SDS011;64129;53.508;10.476;2023-08-06T14:45:27;4.95;;;3.40;;
75542;SDS011;64129;53.508;10.476;2023-08-06T14:47:54;3.92;;;3.42;;
75542;SDS011;64129;53.508;10.476;2023-08-06T14:50:21;6.18;;;3.38;;
75542;SDS011;64129;53.508;10.476;2023-08-06T14:52:47;4.03;;;3.25;;